Latest Weather Observations for Warra

IDT60801

Issued at 11:35 am EDT Tuesday 25 November 2014 (issued every 30 minutes, with the page automatically refreshed every 10 minutes)

About weather observations | Map of weather stations | Latest weather observations for TAS | Other Formats
Station Details ID: 097024 Name: WARRA Lat: -43.06 Lon: 146.70 Height: 495.0 m
Data from the previous 72 hours. | See also: Recent months at Warra
Date/Time
EDT
Temp
°C
App
Temp
°C
Dew
Point
Rel
Hum
%
Delta-T
°C
Wind Press
QNH
hPa
Press
MSL
hPa
Rain
since 9 am
mm
Dir
 
Spd
km/h
Gust
km/h
Spd
kts
Gust
kts
25/11:30am 9.0 3.9 6.1 82 1.4 W 22 46 12 25 - - 0.4
25/11:00am 9.5 3.2 5.5 76 1.9 W 28 50 15 27 - - 0.4
25/10:30am 9.8 4.2 5.4 74 2.1 W 24 44 13 24 - - 0.4
25/10:00am 7.9 1.2 5.5 85 1.1 W 30 59 16 32 - - 0.4
25/09:30am 8.0 0.7 5.5 84 1.2 W 33 59 18 32 - - 0.2
25/09:00am 7.3 1.0 5.6 89 0.8 W 28 54 15 29 - - 10.8
25/08:31am 7.5 1.3 6.0 90 0.7 W 28 48 15 26 - - 10.6
25/08:30am 7.4 1.5 5.9 90 0.7 W 26 48 14 26 - - 10.6
25/08:00am 6.9 0.1 4.9 87 0.9 W 30 50 16 27 - - 10.2
25/07:30am 6.8 -0.6 4.8 87 0.9 W 33 74 18 40 - - 10.0
25/07:00am 6.2 -1.1 4.5 89 0.8 W 32 57 17 31 - - 9.8
25/06:30am 7.0 -0.8 4.7 85 1.0 W 35 57 19 31 - - 9.2
25/06:00am 6.5 -0.3 5.3 92 0.5 W 30 59 16 32 - - 9.0
25/05:30am 6.7 -0.2 4.7 87 0.9 W 30 56 16 30 - - 7.8
25/05:02am 6.8 0.4 5.1 89 0.8 W 28 46 15 25 - - 7.8
25/05:00am 6.9 0.9 5.2 89 0.8 W 26 46 14 25 - - 7.8
25/04:30am 6.9 -0.3 5.2 89 0.8 W 32 54 17 29 - - 7.6
25/04:21am 6.9 0.6 5.5 91 0.6 W 28 69 15 37 - - 7.6
25/04:18am 6.9 1.7 5.5 91 0.6 W 22 69 12 37 - - 7.6
25/04:01am 6.9 0.5 5.4 90 0.7 W 28 48 15 26 - - 6.8
25/04:00am 6.9 0.9 5.4 90 0.7 W 26 48 14 26 - - 6.8
25/03:42am 6.8 0.4 5.0 88 0.8 W 28 54 15 29 - - 6.4
25/03:30am 7.1 1.8 4.9 86 1.0 WNW 22 44 12 24 - - 5.8
25/03:00am 7.7 0.7 4.1 78 1.6 W 30 65 16 35 - - 5.2
25/02:30am 7.6 0.7 4.6 81 1.4 W 30 50 16 27 - - 5.2
25/02:02am 7.5 1.0 4.8 83 1.2 W 28 59 15 32 - - 5.2
25/02:00am 7.5 1.4 4.6 82 1.3 W 26 59 14 32 - - 5.2
25/01:30am 7.0 -0.8 5.0 87 0.9 WNW 35 59 19 32 - - 5.2
25/01:00am 7.3 -0.6 4.4 82 1.3 WNW 35 61 19 33 - - 4.2
25/12:30am 7.3 0.3 3.9 79 1.5 WNW 30 52 16 28 - - 4.2
25/12:18am 7.5 0.0 3.7 77 1.7 WNW 32 72 17 39 - - 4.2
25/12:13am 7.2 0.5 3.8 79 1.5 WNW 28 50 15 27 - - 4.2
25/12:00am 7.0 1.5 4.0 81 1.3 WNW 22 41 12 22 - - 4.2
 
Date/Time
EDT
Temp
°C
App
Temp
°C
Dew
Point
Rel
Hum
%
Delta-T
°C
Wind Press
QNH
hPa
Press
MSL
hPa
Rain
since 9 am
mm
Dir
 
Spd
km/h
Gust
km/h
Spd
kts
Gust
kts
24/11:30pm 6.6 -0.1 3.9 83 1.2 WNW 28 52 15 28 - - 4.0
24/11:19pm 6.7 0.0 3.9 82 1.2 WNW 28 52 15 28 - - 4.0
24/11:00pm 7.0 1.9 4.1 82 1.3 WNW 20 43 11 23 - - 3.8
24/10:30pm 7.2 0.6 4.3 82 1.3 WNW 28 50 15 27 - - 3.8
24/10:28pm 7.2 0.7 4.7 84 1.1 W 28 50 15 27 - - 3.8
24/10:00pm 7.9 2.3 3.2 72 2.1 WNW 22 35 12 19 - - 3.4
24/09:30pm 7.8 3.8 3.1 72 2.1 WNW 13 24 7 13 - - 3.4
24/09:00pm 7.8 3.1 2.9 71 2.1 W 17 26 9 14 - - 3.4
24/08:30pm 7.7 2.7 4.8 82 1.3 WNW 20 37 11 20 - - 3.4
24/08:00pm 8.1 3.1 3.8 74 1.9 WNW 19 37 10 20 - - 3.4
24/07:30pm 9.0 4.0 3.6 69 2.4 WNW 19 41 10 22 - - 3.4
24/07:00pm 8.8 3.1 5.0 77 1.7 WNW 24 41 13 22 - - 3.4
24/06:57pm 8.9 2.5 5.1 77 1.8 WNW 28 46 15 25 - - 3.4
24/06:30pm 10.1 4.4 6.6 79 1.7 WNW 26 41 14 22 - - 3.4
24/06:00pm 10.9 5.7 7.2 78 1.8 WNW 24 46 13 25 - - 3.4
24/05:30pm 11.4 7.1 9.5 88 1.0 WNW 22 35 12 19 - - 3.4
24/05:00pm 11.5 8.5 10.6 94 0.5 NW 17 28 9 15 - - 3.0
24/04:30pm 12.3 9.9 11.4 94 0.5 NW 15 22 8 12 - - 3.0
24/04:00pm 13.2 11.9 12.4 95 0.4 NNW 11 20 6 11 - - 3.0
24/03:30pm 12.6 11.2 12.3 98 0.2 NW 11 19 6 10 - - 2.6
24/03:00pm 12.4 9.6 11.5 94 0.5 NW 17 28 9 15 - - 1.4
24/02:30pm 12.4 10.2 10.8 90 0.9 NW 13 22 7 12 - - 0.8
24/02:00pm 13.4 11.0 10.2 81 1.7 NNW 13 20 7 11 - - 0.8
24/01:30pm 14.8 12.9 10.6 76 2.3 NNW 11 20 6 11 - - 0.8
24/01:00pm 13.5 11.4 9.6 77 2.0 NNW 11 17 6 9 - - 0.8
24/12:30pm 13.5 10.8 10.5 82 1.6 NW 15 20 8 11 - - 0.8
24/12:00pm 12.6 10.9 11.2 91 0.8 NNW 11 17 6 9 - - 0.8
24/11:30am 11.3 9.4 9.2 87 1.1 N 9 13 5 7 - - 0.6
24/11:00am 13.1 12.1 8.8 75 2.2 ENE 4 9 2 5 - - 0.0
24/10:30am 12.9 10.7 6.3 64 3.2 NNW 7 17 4 9 - - 0.0
24/10:00am 14.1 10.6 5.5 56 4.2 N 13 24 7 13 - - 0.0
24/09:30am 13.5 9.7 5.9 60 3.7 NNW 15 24 8 13 - - 0.0
24/09:00am 12.7 8.7 5.1 60 3.6 N 15 30 8 16 - - 0.0
24/08:30am 12.0 7.2 4.7 61 3.4 NNW 19 26 10 14 - - 0.0
24/08:00am 12.7 8.8 5.4 61 3.5 NNW 15 24 8 13 - - 0.0
24/07:30am 12.1 9.4 5.7 65 3.1 NNW 9 13 5 7 - - 0.0
24/07:00am 8.8 6.3 4.8 76 1.8 WNW 7 11 4 6 - - 0.0
24/06:30am 8.3 6.0 4.7 78 1.6 W 6 9 3 5 - - 0.0
24/06:00am 8.3 5.3 4.3 76 1.8 WNW 9 13 5 7 - - 0.0
24/05:30am 7.5 4.8 3.7 77 1.7 NW 7 13 4 7 - - 0.0
24/05:00am 7.6 4.5 3.6 76 1.8 WNW 9 15 5 8 - - 0.0
24/04:30am 8.1 4.4 4.3 77 1.7 NW 13 20 7 11 - - 0.0
24/04:00am 6.9 3.5 4.2 83 1.2 NW 11 17 6 9 - - 0.0
24/03:30am 6.5 3.8 3.8 83 1.2 NNW 7 9 4 5 - - 0.0
24/03:00am 6.3 3.7 4.0 85 1.0 NW 7 11 4 6 - - 0.0
24/02:30am 6.5 4.5 4.3 86 1.0 WNW 4 7 2 4 - - 0.0
24/02:00am 6.7 5.5 4.4 85 1.0 CALM 0 0 0 0 - - 0.0
24/01:30am 7.0 5.3 4.0 81 1.3 N 2 6 1 3 - - 0.0
24/01:00am 7.9 5.5 4.1 77 1.7 NW 6 9 3 5 - - 0.0
24/12:30am 8.7 6.0 3.7 71 2.2 NNW 7 13 4 7 - - 0.0
24/12:00am 10.0 6.9 3.7 65 2.8 NNW 9 15 5 8 - - 0.0
 
Date/Time
EDT
Temp
°C
App
Temp
°C
Dew
Point
Rel
Hum
%
Delta-T
°C
Wind Press
QNH
hPa
Press
MSL
hPa
Rain
since 9 am
mm
Dir
 
Spd
km/h
Gust
km/h
Spd
kts
Gust
kts
23/11:30pm 10.2 6.4 3.7 64 2.9 WNW 13 22 7 12 - - 0.0
23/11:00pm 8.8 6.1 3.8 71 2.2 NNE 7 7 4 4 - - 0.0
23/10:30pm 10.3 7.2 3.8 64 2.9 NW 9 17 5 9 - - 0.0
23/10:00pm 9.8 7.2 4.0 67 2.6 NNW 7 13 4 7 - - 0.0
23/09:30pm 10.9 7.1 4.1 63 3.1 NNW 13 24 7 13 - - 0.0
23/09:00pm 11.1 6.6 4.3 63 3.1 WNW 17 26 9 14 - - 0.0
23/08:30pm 11.7 8.7 4.2 60 3.5 W 9 19 5 10 - - 0.0
23/08:00pm 12.8 8.2 3.7 54 4.2 W 17 28 9 15 - - 0.0
23/07:30pm 13.8 8.9 3.9 51 4.6 W 19 35 10 19 - - 0.0
23/07:00pm 15.1 11.0 4.2 48 5.2 W 15 26 8 14 - - 0.0
23/06:30pm 16.1 11.3 4.5 46 5.6 W 19 30 10 16 - - 0.0
23/06:00pm 16.9 12.8 4.3 43 6.1 W 15 24 8 13 - - 0.0
23/05:30pm 17.7 13.3 2.8 37 7.0 WNW 15 24 8 13 - - 0.0
23/05:00pm 18.2 14.1 2.5 35 7.4 WNW 13 22 7 12 - - 0.0
23/04:30pm 18.2 13.3 4.0 39 6.9 NW 19 28 10 15 - - 0.0
23/04:00pm 16.7 13.6 3.7 42 6.2 W 9 15 5 8 - - 0.0
23/03:30pm 16.6 13.2 4.0 43 6.0 NW 11 28 6 15 - - 0.0
23/03:00pm 18.3 15.0 4.8 41 6.7 WNW 11 20 6 11 - - 0.0
23/02:30pm 18.6 15.9 5.8 43 6.4 WNW 9 15 5 8 - - 0.0
23/02:00pm 18.6 15.0 4.8 40 6.8 WNW 13 33 7 18 - - 0.0
23/01:30pm 18.7 15.4 6.2 44 6.3 WNW 13 24 7 13 - - 0.0
23/01:00pm 16.8 11.7 4.2 43 6.1 W 20 35 11 19 - - 0.0
23/12:30pm 16.8 12.1 5.1 46 5.7 NW 19 24 10 13 - - 0.0
23/12:00pm 15.5 10.4 4.2 47 5.4 W 20 33 11 18 - - 0.0
23/11:30am 15.5 10.1 4.5 48 5.3 WNW 22 39 12 21 - - 0.0
23/11:00am 15.8 10.2 5.4 50 5.1 WNW 24 41 13 22 - - 0.0
23/10:30am 15.1 9.5 5.3 52 4.8 W 24 41 13 22 - - 0.0
23/10:00am 15.6 11.5 6.3 54 4.6 WNW 17 28 9 15 - - 0.0
23/09:30am 14.0 9.0 4.6 53 4.5 W 20 28 11 15 - - 0.0
23/09:00am 13.5 9.1 4.9 56 4.1 WNW 17 33 9 18 - - 0.8
23/08:30am 13.0 9.6 5.7 61 3.5 NNW 13 20 7 11 - - 0.8
23/08:00am 10.7 7.1 4.8 67 2.7 NW 13 24 7 13 - - 0.8
23/07:30am 10.5 6.8 4.4 66 2.8 NW 13 33 7 18 - - 0.8
23/07:00am 10.9 6.8 4.4 64 3.0 WNW 15 22 8 12 - - 0.8
23/06:30am 10.0 6.4 5.0 71 2.3 NW 13 28 7 15 - - 0.8
23/06:00am 10.1 6.2 5.5 73 2.2 W 15 26 8 14 - - 0.8
23/05:30am 10.4 6.2 5.8 73 2.2 W 17 30 9 16 - - 0.8
23/05:00am 10.7 6.3 6.6 76 2.0 W 19 32 10 17 - - 0.8
23/04:30am 10.8 7.1 7.9 82 1.4 W 17 30 9 16 - - 0.8
23/04:00am 11.4 7.8 8.3 81 1.6 W 17 30 9 16 - - 0.8
23/03:30am 11.8 9.8 8.6 81 1.6 WSW 9 20 5 11 - - 0.8
23/03:00am 12.6 8.0 8.3 75 2.2 WNW 22 39 12 21 - - 0.8
23/02:30am 12.3 8.3 8.2 76 2.1 WNW 19 35 10 19 - - 0.8
23/02:00am 12.8 8.9 8.7 76 2.1 WNW 19 30 10 16 - - 0.8
23/01:30am 12.7 9.6 8.8 77 2.0 WNW 15 28 8 15 - - 0.8
23/01:00am 12.5 9.5 9.3 81 1.7 W 15 24 8 13 - - 0.8
23/12:30am 12.5 10.2 9.1 80 1.8 WNW 11 19 6 10 - - 0.8
23/12:00am 11.9 10.1 9.5 85 1.2 NW 9 20 5 11 - - 0.8
 
Date/Time
EDT
Temp
°C
App
Temp
°C
Dew
Point
Rel
Hum
%
Delta-T
°C
Wind Press
QNH
hPa
Press
MSL
hPa
Rain
since 9 am
mm
Dir
 
Spd
km/h
Gust
km/h
Spd
kts
Gust
kts
22/11:30pm 11.9 9.8 9.6 86 1.2 NNW 11 19 6 10 - - 0.8
22/11:00pm 11.3 10.0 9.9 91 0.7 NW 7 11 4 6 - - 0.8
22/10:30pm 11.0 9.3 9.8 92 0.6 NNW 9 11 5 6 - - 0.8
22/10:00pm 11.0 9.4 10.2 95 0.4 N 9 13 5 7 - - 0.8
22/09:30pm 10.9 9.3 10.1 95 0.4 N 9 11 5 6 - - 0.8
22/09:00pm 11.1 9.7 9.7 91 0.7 NNW 7 9 4 5 - - 0.8
22/08:30pm 12.4 10.7 10.0 85 1.3 N 9 22 5 12 - - 0.8
22/08:00pm 13.1 11.9 10.3 83 1.5 NW 7 11 4 6 - - 0.8
22/07:30pm 13.4 12.5 11.5 88 1.0 NE 7 9 4 5 - - 0.8
22/07:00pm 13.9 12.9 11.1 83 1.5 N 7 17 4 9 - - 0.6
22/06:30pm 14.8 14.3 10.6 76 2.3 NNE 4 9 2 5 - - 0.6
22/06:00pm 14.8 13.5 10.0 73 2.6 N 7 13 4 7 - - 0.6
22/05:30pm 15.3 13.5 10.9 75 2.4 WNW 11 30 6 16 - - 0.6
22/05:00pm 15.4 13.5 10.4 72 2.7 NW 11 20 6 11 - - 0.6
22/04:30pm 15.5 11.7 9.2 66 3.3 NW 19 39 10 21 - - 0.4
22/04:00pm 16.0 12.2 9.9 67 3.3 WNW 20 41 11 22 - - 0.4
22/03:30pm 16.4 14.7 11.3 72 2.8 N 11 19 6 10 - - 0.4
22/03:00pm 17.4 13.2 8.3 55 4.8 NW 20 44 11 24 - - 0.0
22/02:30pm 18.4 13.9 8.4 52 5.3 NW 22 44 12 24 - - 0.0
22/02:12pm 18.2 12.4 7.9 51 5.4 NW 28 48 15 26 - - 0.0
22/02:00pm 19.3 15.3 9.2 52 5.5 NW 20 37 11 20 - - 0.0
22/01:30pm 18.7 15.0 9.5 55 5.0 NW 19 48 10 26 - - 0.0
22/01:00pm 17.6 12.6 9.5 59 4.4 NW 26 50 14 27 - - 0.0
22/12:30pm 16.4 12.7 9.3 63 3.8 NW 19 41 10 22 - - 0.0
22/12:03pm 15.7 10.1 8.9 64 3.6 NW 28 46 15 25 - - 0.0
22/12:00pm 16.2 11.6 9.6 65 3.5 NW 24 44 13 24 - - 0.0
22/11:37am 15.3 10.0 9.9 70 2.9 NW 28 52 15 28 - - 0.0

Other Formats:

Comma delimited format used in spreadsheet applications
http://www.bom.gov.au/fwo/IDT60801/IDT60801.95962.axf

JavaScript Object Notation format (JSON) in row-major order
http://www.bom.gov.au/fwo/IDT60801/IDT60801.95962.json